Time;durP1;ratioP1;P1;durP2;ratioP2;P2;SDS_P1;SDS_P2;PMS_P1;PMS_P2;Temp;Humidity;BMP_temperature;BMP_pressure;BME280_temperature;BME280_humidity;BME280_pressure;Samples;Min_cycle;Max_cycle;Signal;HPM_P1;HPM_P2
2023/12/20 00:00:47;;;;;;;33.25;27.35;;;3.90;99.90;;;;;;5127274;28;20046;-77
2023/12/20 00:03:18;;;;;;;35.58;27.08;;;3.90;99.90;;;;;;5127492;29;20031;-76
2023/12/20 00:05:48;;;;;;;35.97;28.73;;;3.90;99.90;;;;;;5126819;28;20038;-77
2023/12/20 00:08:19;;;;;;;37.67;30.40;;;3.80;99.90;;;;;;5125582;28;20562;-77
2023/12/20 00:10:50;;;;;;;41.30;29.27;;;3.80;99.90;;;;;;5127236;28;20045;-78
2023/12/20 00:13:21;;;;;;;37.10;28.08;;;4.00;99.90;;;;;;5127239;29;20411;-78
2023/12/20 00:15:52;;;;;;;35.10;28.15;;;3.70;99.90;;;;;;5127242;28;20030;-78
2023/12/20 00:18:23;;;;;;;41.20;28.88;;;3.70;99.90;;;;;;5127447;29;20475;-80
2023/12/20 00:20:54;;;;;;;35.35;29.25;;;3.80;99.90;;;;;;5127715;28;20034;-80
2023/12/20 00:23:25;;;;;;;36.53;29.30;;;3.40;99.90;;;;;;5127627;28;20537;-77
2023/12/20 00:25:56;;;;;;;37.20;29.52;;;3.50;99.90;;;;;;5126996;28;20162;-77
2023/12/20 00:28:27;;;;;;;35.95;29.08;;;3.60;99.90;;;;;;5127475;29;20525;-76
2023/12/20 00:30:58;;;;;;;37.92;29.27;;;3.60;99.90;;;;;;5127314;29;20035;-79
2023/12/20 00:33:28;;;;;;;39.92;30.00;;;3.60;99.90;;;;;;5126346;28;20031;-78
2023/12/20 00:35:59;;;;;;;36.85;28.73;;;3.50;99.90;;;;;;5126948;29;20383;-76
2023/12/20 00:38:30;;;;;;;41.67;28.55;;;3.60;99.90;;;;;;5126608;28;20041;-80
2023/12/20 00:41:01;;;;;;;38.75;27.50;;;3.50;99.90;;;;;;5126987;29;20120;-76
2023/12/20 00:43:32;;;;;;;36.65;27.67;;;3.40;99.90;;;;;;5127132;28;20154;-77
2023/12/20 00:46:03;;;;;;;40.33;28.67;;;3.40;99.90;;;;;;5127178;28;20035;-75
2023/12/20 00:48:34;;;;;;;35.20;28.38;;;3.50;99.90;;;;;;5126680;29;20472;-76
2023/12/20 00:51:04;;;;;;;38.75;28.38;;;3.60;99.90;;;;;;5126750;28;20378;-77
2023/12/20 00:53:35;;;;;;;34.70;27.33;;;3.70;99.90;;;;;;5125795;29;20031;-79
2023/12/20 00:56:06;;;;;;;35.67;28.35;;;3.50;99.90;;;;;;5126832;28;20024;-78
2023/12/20 00:58:37;;;;;;;34.67;26.75;;;3.50;99.90;;;;;;5126689;28;20062;-78
2023/12/20 01:01:08;;;;;;;33.17;25.77;;;3.50;99.90;;;;;;5125401;29;20035;-76
2023/12/20 01:03:39;;;;;;;35.40;28.08;;;3.40;99.90;;;;;;5125353;29;20020;-77
2023/12/20 01:06:16;;;;;;;36.88;28.48;;;3.50;99.90;;;;;;5126573;29;20027;-76
2023/12/20 01:08:47;;;;;;;37.97;27.45;;;3.50;99.90;;;;;;5126481;28;20360;-79
2023/12/20 01:11:17;;;;;;;34.95;27.17;;;3.60;99.90;;;;;;5125250;28;20042;-78
2023/12/20 01:13:48;;;;;;;35.83;28.65;;;3.40;99.90;;;;;;5126568;28;20034;-76
2023/12/20 01:16:20;;;;;;;33.90;28.17;;;3.30;99.90;;;;;;5125579;28;20109;-77
2023/12/20 01:18:51;;;;;;;34.63;28.13;;;3.30;99.90;;;;;;5126954;29;20051;-75
2023/12/20 01:21:22;;;;;;;37.38;30.17;;;3.30;99.90;;;;;;5126625;28;20087;-79
2023/12/20 01:23:53;;;;;;;36.38;27.73;;;3.20;99.90;;;;;;5126028;29;20038;-79
2023/12/20 01:26:24;;;;;;;32.22;26.65;;;3.30;99.90;;;;;;5126579;28;20031;-79
2023/12/20 01:28:55;;;;;;;36.97;27.23;;;3.20;99.90;;;;;;5126431;29;20086;-76
2023/12/20 01:31:27;;;;;;;34.75;28.27;;;3.30;99.90;;;;;;5126287;29;20034;-79
2023/12/20 01:33:58;;;;;;;33.15;25.83;;;3.20;99.90;;;;;;5126152;29;20106;-79
2023/12/20 01:36:29;;;;;;;33.25;25.88;;;3.30;99.90;;;;;;5125041;29;20118;-78
2023/12/20 01:38:59;;;;;;;33.67;26.08;;;3.30;99.90;;;;;;5125670;28;20051;-78
2023/12/20 01:41:30;;;;;;;36.25;27.95;;;3.30;99.90;;;;;;5125070;29;20474;-76
2023/12/20 01:44:01;;;;;;;34.88;27.25;;;3.30;99.90;;;;;;5125904;29;20031;-78
2023/12/20 01:46:32;;;;;;;34.47;27.77;;;3.00;99.90;;;;;;5126080;29;20028;-78
2023/12/20 01:49:03;;;;;;;34.70;26.55;;;3.10;99.90;;;;;;5126062;28;20162;-78
2023/12/20 01:51:35;;;;;;;37.92;27.58;;;3.10;99.90;;;;;;5125988;29;20110;-77
2023/12/20 01:54:06;;;;;;;40.83;29.17;;;2.90;99.90;;;;;;5126087;28;20050;-78
2023/12/20 01:56:38;;;;;;;37.45;26.42;;;2.90;99.90;;;;;;5125753;29;20534;-78
2023/12/20 01:59:09;;;;;;;34.40;27.90;;;3.10;99.90;;;;;;5125716;29;20702;-77
2023/12/20 02:01:40;;;;;;;36.92;27.95;;;3.20;99.90;;;;;;5124522;29;20053;-77
2023/12/20 02:04:11;;;;;;;36.10;28.55;;;2.90;99.90;;;;;;5125681;28;20035;-78
2023/12/20 02:06:43;;;;;;;37.83;29.50;;;2.50;99.90;;;;;;5124479;29;20170;-77
2023/12/20 02:09:15;;;;;;;39.42;29.23;;;3.10;99.90;;;;;;5125549;28;20403;-77
2023/12/20 02:11:46;;;;;;;38.47;29.67;;;3.00;99.90;;;;;;5125894;29;20110;-77
2023/12/20 02:14:17;;;;;;;35.13;29.20;;;3.10;99.90;;;;;;5125488;29;20488;-78
2023/12/20 02:16:48;;;;;;;39.92;28.45;;;3.00;99.90;;;;;;5125851;29;20122;-77
2023/12/20 02:19:20;;;;;;;33.70;27.83;;;3.20;99.90;;;;;;5125971;29;20806;-77
2023/12/20 02:22:06;;;;;;;38.83;28.63;;;3.00;99.90;;;;;;5125953;29;20036;-77
2023/12/20 02:24:37;;;;;;;39.05;30.90;;;3.10;99.90;;;;;;5125842;29;20035;-78
2023/12/20 02:27:08;;;;;;;37.22;30.45;;;2.90;99.90;;;;;;5125667;29;20032;-77
2023/12/20 02:29:39;;;;;;;37.53;28.92;;;3.10;99.90;;;;;;5125543;29;20043;-77
2023/12/20 02:32:10;;;;;;;36.97;29.58;;;2.90;99.90;;;;;;5125523;29;20383;-78
2023/12/20 02:34:41;;;;;;;34.50;29.52;;;3.00;99.90;;;;;;5125398;29;20480;-78
2023/12/20 02:37:12;;;;;;;38.10;29.55;;;2.90;99.90;;;;;;5125754;28;20476;-77
2023/12/20 02:39:43;;;;;;;37.67;29.52;;;3.00;99.90;;;;;;5125344;28;20395;-77
2023/12/20 02:42:13;;;;;;;39.35;30.65;;;3.20;99.90;;;;;;5125298;29;20023;-78
2023/12/20 02:44:44;;;;;;;38.75;30.17;;;3.10;99.90;;;;;;5125569;29;20035;-77
2023/12/20 02:47:15;;;;;;;39.50;32.35;;;3.10;99.90;;;;;;5125424;29;20038;-77
2023/12/20 02:49:46;;;;;;;39.92;31.60;;;3.00;99.90;;;;;;5124553;28;20484;-77
2023/12/20 02:52:17;;;;;;;41.65;29.90;;;3.00;99.90;;;;;;5128099;29;20023;-77
2023/12/20 02:54:48;;;;;;;38.58;31.48;;;2.90;99.90;;;;;;5129419;29;20031;-77
2023/12/20 02:57:19;;;;;;;42.70;31.98;;;2.90;99.90;;;;;;5129383;28;20387;-77
2023/12/20 02:59:49;;;;;;;41.08;33.47;;;2.80;99.90;;;;;;5128880;29;20379;-76
2023/12/20 03:02:20;;;;;;;42.85;31.90;;;2.90;99.90;;;;;;5129264;29;20031;-77
2023/12/20 03:04:51;;;;;;;39.08;30.98;;;2.70;99.90;;;;;;5129182;28;20050;-77
2023/12/20 03:07:22;;;;;;;39.00;31.17;;;2.80;99.90;;;;;;5127960;28;20041;-77
2023/12/20 03:09:53;;;;;;;39.00;30.85;;;2.80;99.90;;;;;;5127689;28;20506;-77
2023/12/20 03:12:24;;;;;;;38.00;31.73;;;2.70;99.90;;;;;;5129232;29;20782;-77
2023/12/20 03:14:55;;;;;;;43.42;33.03;;;2.90;99.90;;;;;;5129181;29;20035;-77
2023/12/20 03:17:26;;;;;;;40.10;32.20;;;2.90;99.90;;;;;;5128792;29;20031;-77
2023/12/20 03:19:56;;;;;;;42.83;32.30;;;2.80;99.90;;;;;;5127729;28;20049;-78
2023/12/20 03:22:27;;;;;;;43.05;31.60;;;2.90;99.90;;;;;;5128735;28;20031;-77
2023/12/20 03:24:58;;;;;;;41.75;32.97;;;2.80;99.90;;;;;;5127785;28;20789;-77
2023/12/20 03:27:29;;;;;;;41.42;32.75;;;2.80;99.90;;;;;;5129022;29;20463;-77
2023/12/20 03:30:00;;;;;;;45.30;33.10;;;2.90;99.90;;;;;;5128846;28;20114;-77
2023/12/20 03:32:31;;;;;;;46.65;36.60;;;3.10;99.90;;;;;;5128407;29;20027;-79
2023/12/20 03:35:02;;;;;;;38.80;32.90;;;3.00;99.90;;;;;;5128520;29;20078;-78
2023/12/20 03:37:32;;;;;;;39.92;32.10;;;2.90;99.90;;;;;;5128690;28;20023;-79
2023/12/20 03:40:04;;;;;;;43.28;32.50;;;2.90;99.90;;;;;;5126763;28;20096;-78
2023/12/20 03:42:35;;;;;;;41.75;32.78;;;2.80;99.90;;;;;;5128089;29;20032;-76
2023/12/20 03:45:06;;;;;;;48.83;35.20;;;2.70;99.90;;;;;;5126776;29;20027;-77
2023/12/20 03:47:37;;;;;;;44.22;33.35;;;2.70;99.90;;;;;;5127279;29;20453;-77
2023/12/20 03:50:08;;;;;;;40.85;31.80;;;2.80;99.90;;;;;;5128274;28;20106;-77
2023/12/20 03:52:39;;;;;;;43.40;32.28;;;2.80;99.90;;;;;;5127124;29;20154;-76
2023/12/20 03:55:10;;;;;;;44.40;33.67;;;2.70;99.90;;;;;;5128311;29;20027;-77
2023/12/20 03:57:41;;;;;;;44.90;33.33;;;2.70;99.90;;;;;;5128293;29;20023;-77
2023/12/20 04:00:12;;;;;;;42.75;32.95;;;2.70;99.90;;;;;;5128401;28;20023;-77
2023/12/20 04:02:43;;;;;;;48.80;36.47;;;2.70;99.90;;;;;;5126788;28;20024;-77
2023/12/20 04:05:13;;;;;;;45.28;35.17;;;2.60;99.90;;;;;;5128512;28;20448;-78
2023/12/20 04:07:44;;;;;;;42.53;33.17;;;2.60;99.90;;;;;;5127739;28;20110;-78
2023/12/20 04:10:15;;;;;;;41.90;32.67;;;2.70;99.90;;;;;;5128275;29;20032;-78
2023/12/20 04:12:46;;;;;;;43.28;32.97;;;2.70;99.90;;;;;;5128318;29;20427;-77
2023/12/20 04:15:17;;;;;;;45.50;33.55;;;2.80;99.90;;;;;;5127999;29;20371;-77
2023/12/20 04:17:48;;;;;;;43.50;34.25;;;2.80;99.90;;;;;;5127861;28;20031;-77
2023/12/20 04:20:19;;;;;;;45.03;33.67;;;2.60;99.90;;;;;;5128185;29;20408;-76
2023/12/20 04:22:49;;;;;;;44.80;34.70;;;2.70;99.90;;;;;;5127901;29;20494;-77
2023/12/20 04:25:20;;;;;;;51.15;37.05;;;2.60;99.90;;;;;;5127474;28;20036;-77
2023/12/20 04:27:51;;;;;;;45.35;33.92;;;3.10;99.90;;;;;;5127803;28;20935;-77
2023/12/20 04:30:22;;;;;;;43.28;33.38;;;2.40;99.90;;;;;;5127680;28;20035;-77
2023/12/20 04:32:53;;;;;;;40.28;32.83;;;2.60;99.90;;;;;;5127148;28;20033;-77
2023/12/20 04:35:24;;;;;;;44.55;32.53;;;2.70;99.90;;;;;;5126515;29;20035;-78
2023/12/20 04:37:55;;;;;;;43.03;33.85;;;2.70;99.90;;;;;;5127148;28;20055;-77
2023/12/20 04:40:25;;;;;;;46.83;33.47;;;2.60;99.90;;;;;;5127789;28;20062;-77
2023/12/20 04:42:56;;;;;;;43.53;32.90;;;2.60;99.90;;;;;;5126305;29;20031;-78
2023/12/20 04:45:27;;;;;;;44.88;33.85;;;2.40;99.90;;;;;;5127295;28;20031;-77
2023/12/20 04:47:58;;;;;;;39.17;30.17;;;2.60;99.90;;;;;;5127384;28;20043;-78
2023/12/20 04:50:29;;;;;;;41.85;31.35;;;2.60;99.90;;;;;;5127302;29;20763;-78
2023/12/20 04:53:00;;;;;;;43.53;32.28;;;2.60;99.90;;;;;;5127210;29;20089;-76
2023/12/20 04:55:31;;;;;;;45.10;33.70;;;2.60;99.90;;;;;;5127584;28;20028;-77
2023/12/20 04:58:02;;;;;;;45.78;35.90;;;2.20;99.90;;;;;;5127007;28;20031;-78
2023/12/20 05:00:33;;;;;;;48.85;36.53;;;2.30;99.90;;;;;;5127182;28;20031;-78
2023/12/20 05:03:04;;;;;;;46.58;34.38;;;2.40;99.90;;;;;;5126755;28;20042;-78
2023/12/20 05:05:39;;;;;;;41.72;31.70;;;2.40;99.90;;;;;;5127091;29;20031;-77
2023/12/20 05:08:09;;;;;;;42.90;33.45;;;2.50;99.90;;;;;;5126842;28;20043;-77
2023/12/20 05:10:40;;;;;;;37.40;30.05;;;2.40;99.90;;;;;;5126723;28;20117;-77
2023/12/20 05:13:11;;;;;;;47.25;34.05;;;2.40;99.90;;;;;;5126113;28;20059;-77
2023/12/20 05:15:42;;;;;;;48.63;34.78;;;2.50;99.90;;;;;;5126473;29;20478;-78
2023/12/20 05:18:13;;;;;;;43.60;33.28;;;2.30;99.90;;;;;;5125339;29;20023;-78
2023/12/20 05:20:45;;;;;;;45.55;33.53;;;2.50;99.90;;;;;;5126610;29;20090;-78
2023/12/20 05:23:17;;;;;;;44.38;33.53;;;2.40;99.90;;;;;;5125494;29;20034;-77
2023/12/20 05:25:48;;;;;;;42.05;32.45;;;2.50;99.90;;;;;;5125421;29;20088;-77
2023/12/20 05:28:19;;;;;;;44.92;34.95;;;2.40;99.90;;;;;;5126630;29;20081;-77
2023/12/20 05:30:52;;;;;;;40.17;31.63;;;2.30;99.90;;;;;;5126669;29;20051;-77
2023/12/20 05:33:23;;;;;;;51.67;34.22;;;2.30;99.90;;;;;;5126353;28;20023;-77
2023/12/20 05:35:53;;;;;;;42.58;34.10;;;2.40;99.90;;;;;;5126239;28;20533;-78
2023/12/20 05:38:24;;;;;;;48.08;35.05;;;2.30;99.90;;;;;;5125994;28;20511;-78
2023/12/20 05:40:55;;;;;;;46.08;33.95;;;2.50;99.90;;;;;;5126267;28;20051;-78
2023/12/20 05:43:26;;;;;;;43.08;34.65;;;2.30;99.90;;;;;;5126156;28;20031;-78
2023/12/20 05:45:57;;;;;;;44.88;34.15;;;2.30;99.90;;;;;;5126371;28;20424;-78
2023/12/20 05:48:28;;;;;;;43.65;35.28;;;2.10;99.90;;;;;;5126041;28;20039;-78
2023/12/20 05:50:59;;;;;;;44.50;36.42;;;2.30;99.90;;;;;;5126004;28;20479;-76
2023/12/20 05:53:30;;;;;;;47.58;37.22;;;2.40;99.90;;;;;;5125069;29;20483;-76
2023/12/20 05:56:01;;;;;;;49.60;38.30;;;2.50;99.90;;;;;;5125047;29;20031;-79
2023/12/20 05:58:33;;;;;;;49.25;39.45;;;2.50;99.90;;;;;;5126412;29;20051;-78
2023/12/20 06:01:05;;;;;;;49.17;40.10;;;2.50;99.90;;;;;;5126020;28;20114;-79
2023/12/20 06:03:36;;;;;;;49.30;41.30;;;2.60;99.90;;;;;;5125876;28;20055;-77
2023/12/20 06:06:07;;;;;;;51.15;43.70;;;2.60;99.90;;;;;;5124876;29;20392;-79
2023/12/20 06:08:39;;;;;;;47.55;42.33;;;2.60;99.90;;;;;;5124768;28;20051;-78
2023/12/20 06:11:09;;;;;;;45.90;40.10;;;2.70;99.90;;;;;;5126011;28;20652;-78
2023/12/20 06:13:40;;;;;;;45.83;39.72;;;2.90;99.90;;;;;;5126040;29;20106;-79
2023/12/20 06:16:11;;;;;;;55.40;40.22;;;2.80;99.90;;;;;;5124771;29;20027;-77
2023/12/20 06:18:42;;;;;;;52.40;41.83;;;2.80;99.90;;;;;;5126109;28;20029;-84
2023/12/20 06:21:14;;;;;;;47.92;39.08;;;2.80;99.90;;;;;;5124447;29;20035;-83
2023/12/20 06:23:45;;;;;;;46.58;39.58;;;2.90;99.90;;;;;;5125043;28;20055;-80
2023/12/20 06:26:15;;;;;;;49.40;40.17;;;2.90;99.90;;;;;;5128282;29;20387;-83
2023/12/20 06:28:46;;;;;;;51.22;40.45;;;3.00;99.90;;;;;;5129210;28;20035;-86
2023/12/20 06:31:17;;;;;;;50.25;41.38;;;3.00;99.90;;;;;;5128670;29;20034;-81
2023/12/20 06:33:57;;;;;;;49.20;41.97;;;3.00;99.90;;;;;;5128382;28;20034;-85
2023/12/20 06:36:27;;;;;;;49.83;41.45;;;3.10;99.90;;;;;;5128672;29;20031;-76
2023/12/20 06:38:58;;;;;;;52.72;43.40;;;3.10;99.90;;;;;;5128157;28;20043;-80
2023/12/20 06:41:29;;;;;;;50.47;40.70;;;3.10;99.90;;;;;;5128532;29;20452;-81
2023/12/20 06:44:00;;;;;;;50.03;41.80;;;3.00;99.90;;;;;;5129358;29;20035;-84
2023/12/20 06:46:31;;;;;;;48.00;40.75;;;3.30;99.90;;;;;;5128140;29;20054;-79
2023/12/20 06:49:02;;;;;;;61.58;43.85;;;3.20;99.90;;;;;;5128967;29;20039;-83
2023/12/20 06:51:33;;;;;;;50.38;42.28;;;3.00;99.90;;;;;;5129409;29;20464;-81
2023/12/20 06:54:04;;;;;;;53.03;40.35;;;3.20;99.90;;;;;;5129402;29;20383;-81
2023/12/20 06:56:35;;;;;;;55.28;39.70;;;3.40;99.90;;;;;;5128935;28;20043;-75
2023/12/20 06:59:06;;;;;;;60.80;41.92;;;3.50;99.90;;;;;;5128642;29;20050;-87
2023/12/20 07:01:37;;;;;;;56.38;39.85;;;3.60;99.90;;;;;;5127646;29;20058;-81
2023/12/20 07:04:08;;;;;;;61.08;40.38;;;3.70;99.90;;;;;;5128813;28;20034;-79
2023/12/20 07:06:39;;;;;;;56.80;40.22;;;3.70;99.90;;;;;;5128273;29;20046;-81
2023/12/20 07:09:10;;;;;;;66.88;39.80;;;3.80;99.90;;;;;;5128049;28;20047;-76
2023/12/20 07:11:41;;;;;;;63.50;41.20;;;3.90;99.90;;;;;;5129411;29;20023;-81
2023/12/20 07:14:12;;;;;;;64.95;44.03;;;3.70;99.90;;;;;;5127424;28;20122;-86
2023/12/20 07:16:43;;;;;;;84.20;49.17;;;3.80;99.90;;;;;;5128653;28;20652;-82
2023/12/20 07:19:14;;;;;;;64.85;44.38;;;3.90;99.90;;;;;;5127976;28;20024;-82
2023/12/20 07:21:45;;;;;;;79.85;47.60;;;4.20;99.90;;;;;;5126544;29;20027;-77
2023/12/20 07:24:16;;;;;;;76.82;46.95;;;4.20;99.90;;;;;;5127314;29;20039;-81
2023/12/20 07:26:47;;;;;;;68.93;44.42;;;4.20;99.90;;;;;;5127411;29;20364;-78
2023/12/20 07:29:17;;;;;;;68.60;44.70;;;4.50;99.90;;;;;;5127294;28;20109;-81
2023/12/20 07:31:48;;;;;;;67.32;46.20;;;4.50;99.90;;;;;;5126896;29;20023;-83
2023/12/20 07:34:20;;;;;;;92.28;49.95;;;4.80;99.90;;;;;;5128032;29;20046;-77
2023/12/20 07:36:51;;;;;;;95.20;52.13;;;4.90;99.90;;;;;;5127141;28;20442;-82
2023/12/20 07:39:22;;;;;;;90.85;51.95;;;5.00;99.90;;;;;;5127787;29;20091;-84
2023/12/20 07:41:53;;;;;;;100.30;51.00;;;5.00;99.90;;;;;;5127246;28;20046;-84
2023/12/20 07:44:24;;;;;;;92.82;51.17;;;5.20;99.90;;;;;;5128330;29;20031;-88
2023/12/20 07:46:55;;;;;;;74.15;50.22;;;5.30;99.90;;;;;;5126863;29;20023;-81
2023/12/20 07:49:25;;;;;;;77.72;49.20;;;5.50;99.90;;;;;;5125953;29;20442;-81
2023/12/20 07:51:56;;;;;;;84.75;50.22;;;5.70;99.90;;;;;;5127634;28;20411;-83
2023/12/20 07:54:27;;;;;;;81.15;51.92;;;6.10;99.90;;;;;;5127609;28;20042;-77
2023/12/20 07:56:58;;;;;;;79.57;54.65;;;6.60;99.90;;;;;;5127698;28;20015;-85
2023/12/20 07:59:29;;;;;;;77.38;60.08;;;7.00;99.90;;;;;;5126610;29;20585;-76
2023/12/20 08:02:00;;;;;;;69.47;55.50;;;7.50;99.90;;;;;;5128016;28;20023;-76
2023/12/20 08:04:31;;;;;;;60.83;51.42;;;7.80;99.90;;;;;;5127201;28;20037;-77
2023/12/20 08:07:02;;;;;;;63.65;54.60;;;8.00;99.90;;;;;;5127388;28;20043;-76
2023/12/20 08:09:34;;;;;;;55.25;47.60;;;8.00;99.90;;;;;;5126876;29;20051;-76
2023/12/20 08:12:05;;;;;;;54.28;46.63;;;8.20;99.90;;;;;;5125569;29;20028;-76
2023/12/20 08:14:36;;;;;;;47.08;42.13;;;8.30;99.90;;;;;;5126543;28;20055;-77
2023/12/20 08:17:06;;;;;;;43.75;39.08;;;8.30;99.90;;;;;;5126409;29;20055;-75
2023/12/20 08:19:37;;;;;;;43.20;38.67;;;8.30;99.90;;;;;;5124979;29;20031;-76
2023/12/20 08:22:08;;;;;;;45.05;39.85;;;8.40;99.90;;;;;;5125628;29;20027;-76
2023/12/20 08:24:39;;;;;;;42.65;37.85;;;8.60;99.90;;;;;;5124568;29;20034;-76
2023/12/20 08:27:10;;;;;;;42.15;37.28;;;9.00;99.90;;;;;;5125856;29;20027;-76
2023/12/20 08:29:43;;;;;;;43.45;38.83;;;8.90;99.90;;;;;;5125651;28;20036;-77
2023/12/20 08:32:14;;;;;;;44.95;39.33;;;9.40;99.90;;;;;;5125245;29;20762;-76
2023/12/20 08:34:45;;;;;;;44.55;39.60;;;9.40;99.90;;;;;;5125769;28;20089;-76
2023/12/20 08:37:16;;;;;;;46.53;41.70;;;9.70;99.90;;;;;;5125353;28;20375;-77
2023/12/20 08:39:46;;;;;;;43.30;38.67;;;10.00;99.90;;;;;;5124880;28;20060;-76
2023/12/20 08:42:17;;;;;;;39.58;34.78;;;10.30;99.90;;;;;;5124154;29;20031;-76
2023/12/20 08:44:48;;;;;;;35.72;30.02;;;10.20;99.90;;;;;;5124553;29;20035;-80
2023/12/20 08:47:19;;;;;;;39.55;31.00;;;10.40;99.90;;;;;;5124102;28;20039;-77
2023/12/20 08:49:56;;;;;;;38.95;32.13;;;10.70;99.90;;;;;;5122904;29;20031;-80
2023/12/20 08:52:31;;;;;;;37.85;31.38;;;10.90;99.90;;;;;;5125532;29;20498;-75
2023/12/20 08:55:04;;;;;;;36.60;32.67;;;11.10;99.90;;;;;;5125743;29;20050;-81
2023/12/20 08:57:35;;;;;;;39.63;30.27;;;11.20;99.90;;;;;;5125120;28;20038;-76
2023/12/20 09:00:16;;;;;;;34.35;28.45;;;11.50;99.90;;;;;;5125664;29;20026;-75
2023/12/20 09:02:47;;;;;;;;;;;11.60;99.90;;;;;;5125973;28;20031;-81
2023/12/20 09:05:26;;;;;;;39.63;31.00;;;11.70;99.90;;;;;;5124294;28;19914;-81
2023/12/20 09:08:02;;;;;;;37.20;30.80;;;11.90;99.90;;;;;;5124971;28;20166;-81
2023/12/20 09:10:38;;;;;;;42.53;31.98;;;11.90;99.90;;;;;;5123802;29;20054;-75
2023/12/20 09:13:11;;;;;;;44.55;34.22;;;12.00;99.90;;;;;;5125379;29;20038;-75
2023/12/20 09:15:52;;;;;;;38.40;33.72;;;12.30;99.90;;;;;;5124910;29;20123;-75
2023/12/20 09:18:28;;;;;;;37.53;33.40;;;12.70;99.90;;;;;;5124750;28;20097;-76
2023/12/20 09:21:02;;;;;;;37.83;33.67;;;12.90;99.90;;;;;;5123666;29;20094;-75
2023/12/20 09:23:33;;;;;;;37.03;30.75;;;12.90;99.90;;;;;;5122388;29;20110;-76
2023/12/20 09:26:04;;;;;;;36.05;32.00;;;13.20;99.90;;;;;;5125038;28;20066;-75
2023/12/20 09:28:41;;;;;;;39.85;35.75;;;13.40;99.90;;;;;;5124501;28;20125;-75
2023/12/20 09:31:14;;;;;;;39.40;35.30;;;13.40;99.90;;;;;;5124746;29;20027;-75
2023/12/20 09:33:45;;;;;;;37.80;33.70;;;13.80;99.90;;;;;;5124160;28;20031;-80
2023/12/20 09:36:16;;;;;;;35.70;31.88;;;13.70;99.90;;;;;;5124180;29;20023;-80
2023/12/20 09:38:47;;;;;;;36.50;32.50;;;13.60;99.90;;;;;;5124183;28;20028;-75
2023/12/20 09:41:19;;;;;;;33.03;28.92;;;13.60;99.90;;;;;;5123988;29;20035;-78
2023/12/20 09:43:55;;;;;;;33.55;29.98;;;13.80;99.90;;;;;;5123753;28;20118;-80
2023/12/20 09:46:29;;;;;;;36.65;32.00;;;14.10;99.90;;;;;;5123209;29;20961;-80
2023/12/20 09:49:01;;;;;;;33.20;29.92;;;14.20;99.90;;;;;;5124488;28;20126;-82
2023/12/20 09:51:33;;;;;;;34.08;29.08;;;14.40;99.90;;;;;;5123018;29;20506;-82
2023/12/20 09:54:04;;;;;;;33.25;29.92;;;14.90;99.90;;;;;;5122934;29;20055;-82
2023/12/20 09:56:37;;;;;;;36.90;26.30;;;15.00;99.90;;;;;;5124171;28;20016;-81
2023/12/20 09:59:08;;;;;;;27.88;24.13;;;15.00;99.90;;;;;;5124202;28;20031;-75
2023/12/20 10:01:40;;;;;;;27.67;22.73;;;15.30;99.90;;;;;;5124636;28;20027;-76
2023/12/20 10:04:13;;;;;;;28.58;23.67;;;14.90;99.90;;;;;;5124090;28;20031;-75
2023/12/20 10:09:24;;;;;;;24.30;21.25;;;15.50;99.90;;;;;;5424908;23;20065;-75
2023/12/20 10:11:57;;;;;;;26.80;20.75;;;15.50;99.90;;;;;;5142915;28;20109;-73
2023/12/20 10:14:28;;;;;;;25.63;22.77;;;15.20;99.90;;;;;;5144366;28;20087;-77
2023/12/20 10:17:06;;;;;;;29.58;23.05;;;15.40;99.90;;;;;;5142693;28;20026;-77
2023/12/20 10:19:37;;;;;;;27.95;24.50;;;15.20;99.90;;;;;;5137517;28;20105;-72
2023/12/20 10:22:10;;;;;;;29.33;26.27;;;15.40;99.90;;;;;;5143722;28;20507;-73
2023/12/20 10:24:41;;;;;;;31.75;28.35;;;15.40;99.90;;;;;;5142731;28;20027;-78
2023/12/20 10:27:12;;;;;;;31.95;28.67;;;15.40;99.90;;;;;;5144000;28;20046;-75
2023/12/20 10:29:43;;;;;;;31.10;27.75;;;15.30;99.90;;;;;;5143077;28;20398;-77
2023/12/20 10:32:25;;;;;;;31.58;28.30;;;15.20;99.90;;;;;;5142871;28;20027;-76
2023/12/20 10:34:56;;;;;;;29.38;26.15;;;15.30;99.90;;;;;;5143239;28;20026;-75
2023/12/20 10:37:27;;;;;;;31.10;26.25;;;15.70;99.90;;;;;;5141552;28;20501;-76
2023/12/20 10:40:02;;;;;;;28.90;26.05;;;15.80;99.90;;;;;;5141913;28;20030;-78
2023/12/20 10:42:33;;;;;;;28.48;25.35;;;15.40;99.90;;;;;;5142491;28;20042;-78
2023/12/20 10:45:05;;;;;;;27.23;24.42;;;15.60;99.90;;;;;;5142923;28;20026;-76
2023/12/20 10:47:37;;;;;;;28.40;24.30;;;15.70;99.90;;;;;;5140065;28;20098;-73
2023/12/20 10:50:09;;;;;;;27.38;24.67;;;15.70;99.90;;;;;;5143031;28;20122;-77
2023/12/20 10:52:41;;;;;;;26.38;22.85;;;16.10;99.90;;;;;;5141753;28;20058;-77
2023/12/20 10:55:12;;;;;;;23.50;20.60;;;15.70;99.90;;;;;;5143095;28;20022;-77
2023/12/20 10:57:50;;;;;;;20.60;18.40;;;15.60;99.90;;;;;;5142991;28;20026;-76
2023/12/20 11:00:23;;;;;;;21.00;18.10;;;15.70;99.90;;;;;;5140253;28;20349;-77
2023/12/20 11:02:59;;;;;;;26.73;18.67;;;15.80;99.90;;;;;;5140030;28;20030;-73
2023/12/20 11:06:00;;;;;;;19.05;16.90;;;15.80;99.90;;;;;;5143114;28;20046;-76
2023/12/20 11:09:09;;;;;;;20.70;17.35;;;16.30;99.90;;;;;;5141938;28;20070;-73
2023/12/20 11:11:53;;;;;;;21.08;15.95;;;16.30;99.90;;;;;;5140650;28;20051;-73
2023/12/20 11:14:37;;;;;;;20.50;16.33;;;16.30;99.90;;;;;;5144648;28;20025;-73
2023/12/20 11:17:15;;;;;;;19.15;16.45;;;16.20;99.90;;;;;;5145795;28;20030;-73
2023/12/20 11:19:52;;;;;;;18.77;16.50;;;16.40;99.90;;;;;;5145215;28;20018;-73
2023/12/20 11:22:31;;;;;;;19.35;16.98;;;16.20;99.90;;;;;;5144433;28;20022;-77
2023/12/20 11:25:10;;;;;;;23.15;15.50;;;16.20;99.90;;;;;;5144718;28;20027;-75
2023/12/20 11:27:43;;;;;;;19.85;16.33;;;16.60;99.90;;;;;;5143753;28;20344;-73
2023/12/20 11:30:15;;;;;;;18.42;15.82;;;16.90;99.90;;;;;;5143973;28;20031;-73
2023/12/20 11:32:47;;;;;;;18.95;16.42;;;16.40;99.90;;;;;;5145108;28;20613;-74
2023/12/20 11:35:23;;;;;;;20.17;16.00;;;16.30;99.90;;;;;;5144189;28;20413;-75
2023/12/20 11:40:28;;;;;;;19.90;16.08;;;16.50;99.90;;;;;;5162652;28;20465;-77
2023/12/20 11:42:58;;;;;;;20.35;16.35;;;16.40;99.90;;;;;;5166713;28;20030;-77
2023/12/20 11:45:30;;;;;;;19.52;15.27;;;16.50;99.90;;;;;;5166918;28;20030;-76
2023/12/20 11:48:06;;;;;;;20.77;17.05;;;16.90;99.90;;;;;;5166537;28;20027;-77
2023/12/20 11:50:37;;;;;;;19.05;16.92;;;16.60;99.90;;;;;;5166757;28;20759;-78
2023/12/20 11:53:08;;;;;;;23.35;18.20;;;16.70;99.90;;;;;;5166166;28;20110;-76
2023/12/20 11:55:38;;;;;;;24.55;17.85;;;16.80;99.90;;;;;;5166147;28;20030;-76
2023/12/20 11:58:09;;;;;;;20.38;18.42;;;16.70;99.90;;;;;;5164441;28;20471;-75
2023/12/20 12:00:43;;;;;;;23.13;19.75;;;16.60;99.90;;;;;;5165585;28;20034;-75
2023/12/20 12:03:15;;;;;;;23.88;20.35;;;16.80;99.90;;;;;;5165257;28;20394;-78
2023/12/20 12:05:48;;;;;;;20.73;18.67;;;16.80;99.90;;;;;;5166382;28;20034;-77
2023/12/20 12:08:19;;;;;;;22.42;20.10;;;16.90;99.90;;;;;;5165905;28;20038;-78
2023/12/20 12:10:50;;;;;;;23.00;20.40;;;17.00;99.90;;;;;;5166008;28;20101;-77
2023/12/20 12:13:21;;;;;;;23.58;21.13;;;17.30;99.90;;;;;;5166125;28;20019;-75
2023/12/20 12:15:53;;;;;;;24.42;21.98;;;16.80;99.90;;;;;;5166239;28;20037;-77
2023/12/20 12:18:24;;;;;;;24.92;22.30;;;17.30;99.90;;;;;;5165634;28;20378;-76
2023/12/20 12:21:01;;;;;;;23.67;21.15;;;17.10;99.90;;;;;;5165894;28;20033;-75
2023/12/20 12:23:32;;;;;;;22.80;19.17;;;18.10;99.90;;;;;;5163739;28;20084;-77
2023/12/20 12:26:06;;;;;;;20.55;18.23;;;19.30;99.90;;;;;;5164816;28;20031;-77
2023/12/20 12:28:41;;;;;;;21.02;18.90;;;21.40;99.90;;;;;;5164796;28;20049;-78
2023/12/20 12:31:18;;;;;;;26.77;24.02;;;22.90;99.90;;;;;;5165075;28;20033;-78
2023/12/20 12:33:48;;;;;;;22.38;20.08;;;27.10;99.90;;;;;;5164735;28;20018;-77
2023/12/20 12:36:19;;;;;;;21.73;19.65;;;28.90;99.90;;;;;;5164359;28;20088;-77
2023/12/20 12:38:50;;;;;;;20.80;18.00;;;31.20;95.50;;;;;;5163147;28;20061;-77
2023/12/20 12:41:21;;;;;;;24.38;18.95;;;31.90;83.50;;;;;;5164547;28;20045;-77
2023/12/20 12:43:52;;;;;;;25.27;21.27;;;32.50;81.40;;;;;;5164583;28;20034;-77
2023/12/20 12:46:23;;;;;;;20.95;18.75;;;32.30;77.30;;;;;;5164326;28;20086;-77
2023/12/20 12:48:54;;;;;;;25.05;21.52;;;33.40;93.10;;;;;;5165171;28;20141;-78
2023/12/20 12:51:25;;;;;;;22.33;19.83;;;31.20;93.70;;;;;;5165508;28;20031;-76
2023/12/20 12:53:56;;;;;;;27.00;20.13;;;32.80;90.10;;;;;;5165244;28;20371;-76
2023/12/20 12:56:27;;;;;;;22.52;20.23;;;31.40;93.30;;;;;;5165620;28;20030;-78
2023/12/20 12:58:58;;;;;;;22.58;19.65;;;31.50;99.90;;;;;;5164712;28;20466;-77
2023/12/20 13:01:29;;;;;;;27.60;24.83;;;31.80;90.60;;;;;;5164600;28;20038;-78